Avant, Oklahoma
Current Conditions -  °F | °C
As of 6:53 PM on Saturday 20 Dec 2014 (Local Time) from KBVO Reporting Station
Scattered Clouds Scattered Clouds  
Wind Chill: 35°   Ceiling: Unl
Heat Index: 39°   Visibility: 10mi
Dew Point: 33°   Wind: 6mph
Humidity: 79%   Direction: 170°S
Pressure: 30.19"   Gusts: NA
Location:  36.49°N, 96.06°W
Report Text: KBVO 210053Z AUTO 17005KT 10SM SCT030 04/01 A3019 RMK AO2 SLP223 T00390006
Loading
Personal Weather Stations






























Interactive Weather Map New forecast layout! Learn more

10-Day Weather Forecast

Advertisements
Track Severe Weather on mobile